Latest Weather Observations for Strahan

IDT60801

Issued at 8:03 pm EDT Monday 22 December 2014 (issued every 30 minutes, with the page automatically refreshed every 10 minutes)

About weather observations | Map of weather stations | Latest weather observations for TAS | Other Formats
Station Details ID: 097072 Name: STRAHAN AERODROME Lat: -42.16 Lon: 145.29 Height: 21.0 m
Data from the previous 72 hours. | See also: Recent months at Strahan
Date/Time
EDT
Temp
°C
App
Temp
°C
Dew
Point
Rel
Hum
%
Delta-T
°C
Wind Press
QNH
hPa
Press
MSL
hPa
Rain
since 9 am
mm
Dir
 
Spd
km/h
Gust
km/h
Spd
kts
Gust
kts
22/08:00pm 16.9 19.1 16.6 98 0.2 CALM 0 0 0 0 1011.1 1011.1 1.2
22/07:30pm 16.9 17.8 16.6 98 0.2 SSW 7 9 4 5 1010.9 1010.9 1.2
22/07:00pm 16.4 16.7 16.1 98 0.2 SSE 9 13 5 7 1010.4 1010.4 1.2
22/06:30pm 16.3 15.8 16.0 98 0.2 SSE 13 15 7 8 1010.3 1010.3 1.2
22/06:00pm 16.0 15.2 15.2 95 0.5 SSE 13 17 7 9 1010.7 1010.7 1.0
22/05:30pm 16.2 16.2 15.1 93 0.6 ESE 9 13 5 7 1011.2 1011.2 1.0
22/05:00pm 15.8 15.5 14.3 91 0.9 SE 9 11 5 6 1011.6 1011.6 0.8
22/04:30pm 15.8 15.4 14.0 89 1.0 SE 9 13 5 7 1012.0 1012.0 0.8
22/04:00pm 16.1 16.1 14.1 88 1.1 SE 7 11 4 6 1012.4 1012.4 0.8
22/03:30pm 15.9 16.3 13.7 87 1.2 SE 4 7 2 4 1012.9 1012.9 0.8
22/03:00pm 15.1 16.0 13.0 87 1.2 CALM 0 6 0 3 1013.5 1013.5 0.8
22/02:30pm 14.8 14.3 12.8 88 1.1 NW 7 9 4 5 1014.3 1014.3 0.4
22/02:00pm 14.7 12.9 12.2 85 1.4 WNW 13 15 7 8 1014.8 1014.8 0.2
22/01:30pm 16.4 15.3 12.0 75 2.4 WNW 9 13 5 7 1014.9 1014.9 0.0
22/01:00pm 16.6 15.0 10.2 66 3.4 NW 9 11 5 6 1014.9 1014.9 0.0
22/12:30pm 16.9 14.1 11.2 69 3.1 WNW 17 19 9 10 1015.4 1015.4 0.0
22/12:00pm 17.0 14.9 11.1 68 3.2 W 13 15 7 8 1015.3 1015.3 0.0
22/11:30am 17.6 15.3 11.8 69 3.2 W 15 20 8 11 1015.7 1015.6 0.0
22/11:00am 17.7 15.5 12.2 70 3.0 WSW 15 20 8 11 1015.5 1015.5 0.0
22/10:30am 16.9 15.7 11.6 71 2.9 SW 9 20 5 11 1015.8 1015.7 0.0
22/10:00am 16.7 15.1 11.4 71 2.9 S 11 15 6 8 1015.3 1015.3 0.0
22/09:30am 16.2 14.7 11.8 75 2.4 SSE 11 19 6 10 1015.2 1015.2 0.0
22/09:00am 15.9 14.6 12.6 81 1.8 SE 11 17 6 9 1015.1 1015.1 0.8
22/08:30am 14.8 13.1 12.3 85 1.4 SSE 13 17 7 9 1015.0 1015.0 0.8
22/08:00am 14.5 14.1 12.4 87 1.1 ESE 6 9 3 5 1015.1 1015.1 0.8
22/07:30am 13.0 12.6 12.4 96 0.3 ENE 6 7 3 4 1014.8 1014.8 0.8
22/07:00am 11.1 10.0 10.8 98 0.2 NE 7 9 4 5 1014.7 1014.7 0.8
22/06:30am 9.6 8.1 9.3 98 0.1 NNE 7 11 4 6 1014.6 1014.6 0.8
22/06:00am 8.9 6.9 8.6 98 0.1 NE 9 9 5 5 1014.2 1014.2 0.8
22/05:30am 9.1 7.2 9.0 99 0.0 NE 9 13 5 7 1014.2 1014.2 0.8
22/05:00am 8.9 7.4 8.6 98 0.1 NE 6 9 3 5 1014.2 1014.2 0.8
22/04:30am 8.9 6.9 8.6 98 0.1 NNE 9 11 5 6 1014.1 1014.1 0.8
22/04:00am 9.4 8.1 9.1 98 0.1 NNE 6 7 3 4 1014.0 1014.0 0.8
22/03:54am 9.7 8.5 9.6 99 0.0 NE 6 7 3 4 1014.0 1014.0 0.8
22/03:30am 9.1 7.7 8.8 98 0.1 NNE 6 7 3 4 1014.3 1014.3 0.8
22/03:13am 9.4 7.9 9.1 98 0.1 E 7 9 4 5 1014.2 1014.2 0.8
22/03:00am 10.1 9.0 9.8 98 0.2 NE 6 9 3 5 1014.3 1014.3 0.8
22/02:30am 10.2 9.1 9.9 98 0.2 NNE 6 9 3 5 1014.5 1014.5 0.8
22/02:00am 10.6 9.0 10.3 98 0.2 NNE 9 11 5 6 1014.8 1014.8 0.8
22/01:30am 11.3 9.6 11.1 99 0.1 NNE 11 15 6 8 1014.9 1014.9 0.8
22/01:00am 11.5 10.2 11.2 98 0.2 NNE 9 11 5 6 1015.0 1015.0 0.8
22/12:30am 11.9 10.7 11.7 99 0.1 NNE 9 11 5 6 1015.0 1015.0 0.8
22/12:00am 12.1 10.6 11.8 98 0.2 NE 11 13 6 7 1014.9 1014.9 0.8
 
Date/Time
EDT
Temp
°C
App
Temp
°C
Dew
Point
Rel
Hum
%
Delta-T
°C
Wind Press
QNH
hPa
Press
MSL
hPa
Rain
since 9 am
mm
Dir
 
Spd
km/h
Gust
km/h
Spd
kts
Gust
kts
21/11:30pm 12.5 11.9 12.2 98 0.2 NNE 7 9 4 5 1015.1 1015.1 0.8
21/11:00pm 12.7 12.1 12.4 98 0.2 N 7 9 4 5 1015.2 1015.2 0.8
21/10:30pm 13.3 13.1 13.0 98 0.2 NNE 6 7 3 4 1015.2 1015.2 0.6
21/10:00pm 13.4 14.0 13.1 98 0.2 NNE 2 6 1 3 1015.0 1015.0 0.6
21/09:30pm 13.7 13.6 13.4 98 0.2 NW 6 6 3 3 1014.8 1014.8 0.6
21/09:00pm 13.7 13.6 13.4 98 0.2 NNW 6 7 3 4 1014.7 1014.7 0.6
21/08:30pm 13.9 13.7 13.6 98 0.2 NE 7 9 4 5 1014.3 1014.3 0.6
21/08:14pm 14.0 14.0 13.5 97 0.3 N 6 9 3 5 1014.1 1014.1 0.6
21/08:00pm 13.9 13.8 13.4 97 0.3 WNW 6 7 3 4 1014.2 1014.2 0.6
21/07:57pm 13.8 13.7 13.3 97 0.3 WNW 6 11 3 6 1014.2 1014.2 0.6
21/07:30pm 13.8 11.5 13.0 95 0.4 W 17 24 9 13 1014.2 1014.2 0.6
21/07:20pm 14.2 11.3 12.9 92 0.7 WSW 20 28 11 15 1014.1 1014.1 0.6
21/07:15pm 14.3 11.3 12.5 89 1.0 WNW 20 28 11 15 1014.1 1014.1 0.6
21/07:00pm 16.0 12.9 12.2 78 2.1 NW 20 24 11 13 1013.9 1013.9 0.0
21/06:30pm 16.5 13.9 13.2 81 1.8 NW 19 26 10 14 1013.9 1013.9 0.0
21/06:00pm 16.6 13.0 12.9 79 2.1 NNW 24 32 13 17 1013.7 1013.7 0.0
21/05:30pm 16.9 12.4 12.6 76 2.4 NW 28 33 15 18 1014.0 1014.0 0.0
21/05:00pm 16.6 12.3 12.2 75 2.4 NW 26 33 14 18 1014.2 1014.2 0.0
21/04:30pm 17.0 12.4 15.0 88 1.2 WNW 33 43 18 23 1014.1 1014.1 0.0
21/04:00pm 17.0 11.9 13.1 78 2.2 NW 32 41 17 22 1014.0 1014.0 0.0
21/03:30pm 16.5 11.4 13.6 83 1.6 NW 33 46 18 25 1014.2 1014.2 0.0
21/03:00pm 16.6 10.4 13.9 84 1.5 WNW 39 56 21 30 1013.8 1013.8 0.0
21/02:41pm 17.1 12.0 13.0 77 2.3 WNW 32 50 17 27 1013.6 1013.6 0.0
21/02:30pm 17.1 12.3 13.0 77 2.3 WNW 30 41 16 22 1013.5 1013.5 0.0
21/02:16pm 17.1 10.8 12.4 74 2.6 WNW 37 56 20 30 1013.1 1013.1 0.0
21/02:00pm 18.0 12.3 12.9 72 2.9 WNW 35 52 19 28 1012.9 1012.9 0.0
21/01:51pm 17.6 12.7 12.7 73 2.7 WNW 30 48 16 26 1013.1 1013.1 0.0
21/01:30pm 18.2 13.2 13.5 74 2.7 WNW 32 44 17 24 1013.3 1013.3 0.0
21/01:00pm 17.6 12.2 12.3 71 2.9 NW 32 43 17 23 1012.9 1012.9 0.0
21/12:30pm 17.8 12.8 12.3 70 3.0 NW 30 39 16 21 1013.0 1013.0 0.0
21/12:00pm 17.5 12.7 11.8 69 3.1 NW 28 37 15 20 1013.2 1013.2 0.0
21/11:30am 17.4 12.1 11.4 68 3.3 NNW 30 37 16 20 1013.6 1013.6 0.0
21/11:00am 17.7 14.2 12.2 70 3.0 NW 22 30 12 16 1013.8 1013.8 0.0
21/10:30am 16.5 12.3 11.0 70 2.9 NW 24 32 13 17 1014.5 1014.5 0.0
21/10:00am 17.5 13.8 11.5 68 3.3 NW 22 30 12 16 1014.8 1014.8 0.0
21/09:30am 16.4 13.2 10.0 66 3.4 NW 17 22 9 12 1015.0 1015.0 0.0
21/09:00am 16.4 14.0 10.0 66 3.4 NW 13 22 7 12 1014.8 1014.8 2.2
21/08:30am 14.9 12.8 9.9 72 2.6 N 11 15 6 8 1014.5 1014.5 2.2
21/08:00am 13.6 11.1 9.6 77 2.0 N 13 17 7 9 1014.4 1014.4 2.2
21/07:30am 12.0 9.4 9.4 84 1.3 NNE 13 19 7 10 1013.9 1013.9 2.2
21/07:00am 10.3 7.6 9.1 92 0.6 NNE 13 17 7 9 1014.1 1014.1 2.2
21/06:30am 9.2 6.0 8.6 96 0.3 NE 15 20 8 11 1014.4 1014.4 2.2
21/06:00am 8.3 5.4 8.0 98 0.1 NNE 13 19 7 10 1014.4 1014.4 2.2
21/05:30am 7.7 5.8 7.4 98 0.1 NE 7 11 4 6 1014.7 1014.7 2.2
21/05:00am 8.1 6.2 7.7 97 0.2 NNE 7 11 4 6 1016.1 1016.0 2.2
21/04:30am 7.9 5.6 7.5 97 0.2 N 9 13 5 7 1014.9 1014.9 2.2
21/04:00am 8.3 5.0 8.0 98 0.1 NE 15 19 8 10 1014.4 1014.4 2.2
21/03:30am 8.6 5.7 8.3 98 0.1 NNE 13 17 7 9 1014.4 1014.4 2.2
21/03:00am 8.1 5.9 7.8 98 0.1 NNE 9 11 5 6 1014.3 1014.3 2.2
21/02:30am 8.1 6.3 7.8 98 0.1 N 7 9 4 5 1014.5 1014.5 2.2
21/02:00am 8.6 6.5 8.3 98 0.1 NNE 9 11 5 6 1014.6 1014.6 2.2
21/01:30am 9.1 6.7 8.8 98 0.1 NNE 11 13 6 7 1014.8 1014.8 2.2
21/01:00am 9.3 7.0 9.0 98 0.1 NNE 11 11 6 6 1015.4 1015.4 2.2
21/12:30am 9.6 7.8 9.3 98 0.1 NE 9 11 5 6 1016.0 1015.9 2.2
21/12:00am 9.5 7.6 9.2 98 0.1 NNE 9 11 5 6 1016.3 1016.2 2.2
 
Date/Time
EDT
Temp
°C
App
Temp
°C
Dew
Point
Rel
Hum
%
Delta-T
°C
Wind Press
QNH
hPa
Press
MSL
hPa
Rain
since 9 am
mm
Dir
 
Spd
km/h
Gust
km/h
Spd
kts
Gust
kts
20/11:30pm 9.9 8.1 9.4 97 0.2 NNE 9 11 5 6 1016.4 1016.3 2.2
20/11:00pm 10.2 8.4 9.6 96 0.3 NNE 9 11 5 6 1016.4 1016.3 2.2
20/10:30pm 9.8 9.5 8.7 93 0.5 CALM 0 4 0 2 1016.5 1016.4 2.2
20/10:00pm 10.0 9.6 8.4 90 0.8 CALM 0 4 0 2 1016.4 1016.3 2.2
20/09:30pm 11.0 9.7 9.3 89 0.9 SW 6 7 3 4 1016.3 1016.2 2.2
20/09:00pm 12.3 10.9 9.7 84 1.3 WSW 7 9 4 5 1016.1 1016.0 2.2
20/08:30pm 14.1 12.8 10.1 77 2.1 W 7 9 4 5 1016.3 1016.2 2.2
20/08:00pm 14.9 12.9 10.1 73 2.5 W 11 15 6 8 1016.4 1016.3 2.2
20/07:30pm 15.8 13.5 10.3 70 2.9 W 13 17 7 9 1016.3 1016.2 2.2
20/07:00pm 15.4 13.1 10.6 73 2.5 W 13 17 7 9 1016.2 1016.1 2.2
20/06:30pm 15.1 12.3 10.1 72 2.6 W 15 19 8 10 1016.1 1016.0 2.2
20/06:00pm 16.8 14.1 10.4 66 3.4 W 15 22 8 12 1016.0 1015.9 2.2
20/05:30pm 16.9 13.8 10.3 65 3.5 W 17 22 9 12 1016.0 1015.9 2.2
20/05:00pm 17.3 14.5 11.3 68 3.2 W 17 24 9 13 1016.1 1016.0 2.2
20/04:30pm 16.9 13.6 11.0 68 3.2 W 19 26 10 14 1016.1 1016.0 2.2
20/04:00pm 17.3 14.1 11.3 68 3.2 WNW 19 24 10 13 1016.2 1016.1 2.2
20/03:30pm 17.2 13.9 11.0 67 3.3 W 19 28 10 15 1016.2 1016.1 2.2
20/03:00pm 17.5 14.5 11.8 69 3.1 W 19 24 10 13 1016.3 1016.2 2.2
20/02:30pm 17.3 14.8 12.2 72 2.8 W 17 24 9 13 1016.1 1016.0 2.2
20/02:00pm 16.3 13.5 12.5 78 2.1 W 19 26 10 14 1016.1 1016.0 2.2
20/01:30pm 16.6 14.2 13.7 83 1.6 W 19 26 10 14 1016.0 1015.9 2.2
20/01:00pm 16.0 14.2 14.4 90 0.9 W 17 20 9 11 1015.9 1015.8 2.2
20/12:36pm 14.0 11.5 13.5 97 0.3 WSW 19 26 10 14 1016.0 1015.9 2.2
20/12:31pm 13.7 10.9 13.2 97 0.3 WSW 20 26 11 14 1016.0 1015.9 2.2
20/12:30pm 13.7 10.9 13.2 97 0.3 WSW 20 26 11 14 1016.0 1015.9 2.2
20/12:12pm 13.5 10.1 12.6 94 0.5 WSW 22 30 12 16 1016.0 1015.9 2.2
20/12:07pm 14.2 11.4 13.1 93 0.6 SW 20 26 11 14 1015.8 1015.7 2.0
20/12:00pm 14.4 12.0 13.9 97 0.3 WSW 19 26 10 14 1015.8 1015.7 2.0
20/11:44am 14.2 10.7 13.4 95 0.4 W 24 32 13 17 1015.5 1015.5 2.0
20/11:30am 14.5 12.1 13.7 95 0.4 W 19 30 10 16 1015.4 1015.4 2.0
20/11:28am 14.6 12.2 13.8 95 0.4 W 19 28 10 15 1015.3 1015.3 2.0
20/11:21am 15.0 12.8 14.5 97 0.3 W 19 26 10 14 1015.3 1015.3 2.0
20/11:00am 13.5 9.6 12.2 92 0.7 W 24 39 13 21 1015.2 1015.2 2.0
20/10:55am 13.9 10.7 11.9 88 1.1 W 20 39 11 21 1015.2 1015.2 1.2
20/10:40am 15.4 13.8 13.9 91 0.8 W 15 20 8 11 1015.0 1015.0 0.2
20/10:30am 14.6 11.7 12.8 89 1.0 W 20 26 11 14 1015.0 1015.0 0.2
20/10:00am 16.7 14.1 13.8 83 1.6 W 20 28 11 15 1014.9 1014.9 0.0
20/09:30am 15.3 12.7 13.8 91 0.8 W 20 30 11 16 1014.7 1014.7 0.0
20/09:00am 14.6 11.2 13.8 95 0.4 W 24 33 13 18 1014.4 1014.4 5.0
20/08:54am 14.4 11.0 13.8 96 0.3 WNW 24 32 13 17 1014.4 1014.4 5.0
20/08:39am 14.0 10.2 13.5 97 0.3 WNW 26 33 14 18 1014.2 1014.2 5.0
20/08:32am 14.0 10.4 13.1 94 0.5 W 24 33 13 18 1014.1 1014.1 5.0
20/08:30am 14.1 10.5 13.0 93 0.6 W 24 33 13 18 1014.1 1014.1 5.0
20/08:19am 14.7 12.1 13.7 94 0.6 W 20 28 11 15 1013.9 1013.9 5.0
20/08:09am 14.5 11.9 13.7 95 0.4 W 20 28 11 15 1013.8 1013.8 5.0
20/08:00am 14.6 11.7 14.1 97 0.3 W 22 28 12 15 1013.7 1013.7 5.0
20/07:43am 14.5 12.0 14.2 98 0.2 W 20 26 11 14 1013.5 1013.5 5.0
20/07:40am 14.5 12.1 14.3 99 0.1 W 20 26 11 14 1013.4 1013.4 5.0
20/07:30am 14.4 11.9 14.2 99 0.1 W 20 28 11 15 1013.3 1013.3 5.0
20/07:23am 14.2 11.7 14.0 99 0.1 W 20 28 11 15 1013.3 1013.3 5.0
20/07:18am 14.2 11.7 14.0 99 0.1 W 20 28 11 15 1013.2 1013.2 5.0
20/07:01am 14.2 11.9 14.0 99 0.1 W 19 26 10 14 1013.0 1013.0 5.0
20/07:00am 14.1 11.7 13.9 99 0.1 W 19 26 10 14 1013.0 1013.0 5.0
20/06:54am 13.9 11.5 13.7 99 0.1 W 19 26 10 14 1013.0 1013.0 5.0
20/06:36am 13.7 10.6 13.5 99 0.1 W 22 35 12 19 1012.8 1012.8 5.0
20/06:30am 13.6 10.5 13.4 99 0.1 WNW 22 30 12 16 1012.8 1012.8 5.0
20/06:00am 13.4 10.6 13.2 99 0.1 W 20 28 11 15 1012.6 1012.6 4.8
20/05:30am 13.6 10.5 13.4 99 0.1 W 22 30 12 16 1012.3 1012.3 4.4
20/05:11am 13.8 10.0 13.6 99 0.1 WNW 26 35 14 19 1012.2 1012.2 4.2
20/05:00am 13.8 10.4 13.6 99 0.1 WNW 24 37 13 20 1012.2 1012.2 4.2
20/04:30am 13.7 9.9 13.5 99 0.1 WNW 26 35 14 19 1012.2 1012.2 4.2
20/04:00am 13.5 9.2 13.3 99 0.1 WNW 28 35 15 19 1012.3 1012.3 4.2
20/03:53am 13.4 9.1 13.2 99 0.1 WNW 28 37 15 20 1012.3 1012.3 4.2
20/03:30am 13.2 8.8 13.0 99 0.1 NW 28 41 15 22 1012.4 1012.4 4.0
20/03:00am 13.1 9.1 12.9 99 0.1 NW 26 33 14 18 1012.7 1012.7 3.6
20/02:32am 13.0 9.3 12.7 98 0.2 WNW 24 33 13 18 1013.1 1013.1 3.0
20/02:30am 12.9 9.2 12.6 98 0.2 WNW 24 33 13 18 1013.1 1013.1 3.0
20/02:21am 13.0 8.5 12.7 98 0.2 NW 28 46 15 25 1013.2 1013.2 3.0
20/02:17am 13.1 9.8 12.9 99 0.1 NW 22 46 12 25 1013.2 1013.2 3.0
20/02:13am 13.1 10.4 12.9 99 0.1 NNW 19 24 10 13 1013.3 1013.3 2.8
20/02:00am 12.9 10.1 12.7 99 0.1 NNW 19 26 10 14 1013.5 1013.5 2.8
20/01:46am 12.4 9.8 12.1 98 0.2 NNW 17 20 9 11 1013.7 1013.7 2.8
20/01:30am 12.2 7.9 11.9 98 0.2 NW 26 39 14 21 1013.8 1013.8 2.8
20/01:00am 12.8 8.6 12.5 98 0.2 NNW 26 35 14 19 1014.1 1014.1 1.6
20/12:59am 12.8 8.6 12.5 98 0.2 NNW 26 35 14 19 1014.2 1014.2 1.6
20/12:30am 12.7 8.9 12.4 98 0.2 NW 24 35 13 19 1014.3 1014.3 1.0
20/12:15am 12.5 10.0 12.2 98 0.2 NNW 17 22 9 12 1014.5 1014.5 1.0
20/12:12am 12.4 9.8 12.1 98 0.2 NNW 17 22 9 12 1014.6 1014.6 1.0
20/12:09am 12.4 9.8 12.1 98 0.2 NNW 17 22 9 12 1014.6 1014.6 1.0
20/12:00am 11.8 9.4 11.5 98 0.2 N 15 20 8 11 1014.8 1014.8 1.0
 
Date/Time
EDT
Temp
°C
App
Temp
°C
Dew
Point
Rel
Hum
%
Delta-T
°C
Wind Press
QNH
hPa
Press
MSL
hPa
Rain
since 9 am
mm
Dir
 
Spd
km/h
Gust
km/h
Spd
kts
Gust
kts
19/11:58pm 11.6 9.2 11.3 98 0.2 N 15 20 8 11 1014.8 1014.8 1.0
19/11:44pm 11.6 9.5 11.3 98 0.2 N 13 20 7 11 1015.0 1015.0 1.0
19/11:30pm 11.6 9.5 11.3 98 0.2 N 13 20 7 11 1015.1 1015.1 0.8
19/11:17pm 11.9 9.6 11.6 98 0.2 N 15 19 8 10 1015.2 1015.2 0.4
19/11:01pm 12.1 9.4 11.8 98 0.2 NNW 17 20 9 11 1015.4 1015.4 0.4
19/11:00pm 12.1 9.4 11.8 98 0.2 NNW 17 20 9 11 1015.4 1015.4 0.4
19/10:30pm 11.8 7.1 10.7 93 0.6 NW 26 35 14 19 1015.8 1015.7 0.2
19/10:28pm 11.8 6.7 10.7 93 0.6 NW 28 35 15 19 1015.8 1015.7 0.2
19/10:00pm 12.2 8.6 10.6 90 0.8 NNW 20 30 11 16 1015.9 1015.8 0.0
19/09:30pm 12.1 8.3 9.8 86 1.2 NW 20 28 11 15 1015.8 1015.7 0.0
19/09:00pm 13.1 10.0 8.8 75 2.2 NW 15 20 8 11 1015.9 1015.8 0.0
19/08:30pm 13.1 7.1 8.6 74 2.3 WNW 30 39 16 21 1016.0 1015.9 0.0

Other Formats:

Comma delimited format used in spreadsheet applications
http://www.bom.gov.au/fwo/IDT60801/IDT60801.94956.axf

JavaScript Object Notation format (JSON) in row-major order
http://www.bom.gov.au/fwo/IDT60801/IDT60801.94956.json